createdAt,value
2018-12-26T13:39:48.716Z,97349.27
2018-12-26T13:42:17.302Z,97358.89
2018-12-26T13:44:45.783Z,97353.56
2018-12-26T13:47:14.058Z,97348.63
2018-12-26T13:49:43.439Z,97348.97
2018-12-26T13:52:11.689Z,97341.31
2018-12-26T13:54:40.322Z,97341.68
2018-12-26T13:57:08.802Z,97341.14
2018-12-26T13:59:37.252Z,97339.72
2018-12-26T14:02:05.506Z,97340.00
2018-12-26T14:04:33.766Z,97341.96
2018-12-26T14:07:02.126Z,97332.70
2018-12-26T14:09:30.375Z,97334.06
2018-12-26T14:11:58.644Z,97336.67
2018-12-26T14:14:27.147Z,97333.17
2018-12-26T14:16:55.670Z,97340.62
2018-12-26T14:19:23.919Z,97332.05
2018-12-26T14:21:52.193Z,97341.57
2018-12-26T14:24:20.636Z,97338.56
2018-12-26T14:26:48.909Z,97338.81
2018-12-26T14:29:17.155Z,97343.96
2018-12-26T14:31:45.496Z,97332.80
2018-12-26T14:34:13.739Z,97332.46
2018-12-26T14:36:42.056Z,97332.39
2018-12-26T14:39:10.304Z,97326.45
2018-12-26T14:41:38.571Z,97324.23
2018-12-26T14:44:06.817Z,97315.20
2018-12-26T14:46:35.126Z,97321.17
2018-12-26T14:49:03.367Z,97317.39
2018-12-26T14:51:31.636Z,97324.43
2018-12-26T14:53:59.949Z,97323.28
2018-12-26T14:56:28.277Z,97327.11
2018-12-26T14:58:56.518Z,97329.00
2018-12-26T15:01:24.783Z,97326.53
2018-12-26T15:03:53.075Z,97325.75
2018-12-26T15:06:21.344Z,97316.97
2018-12-26T15:08:49.661Z,97319.48
2018-12-26T15:11:17.931Z,97317.59
2018-12-26T15:13:46.176Z,97314.83
2018-12-26T15:16:14.438Z,97316.19
2018-12-26T15:18:42.685Z,97315.91
2018-12-26T15:21:11.135Z,97315.86
2018-12-26T15:23:39.376Z,97329.44
2018-12-26T15:26:07.670Z,97338.43
2018-12-26T15:28:35.919Z,97338.38
2018-12-26T15:31:04.184Z,97336.48
2018-12-26T15:33:32.432Z,97332.70
2018-12-26T15:36:00.701Z,97333.23
2018-12-26T15:38:28.945Z,97334.05
2018-12-26T15:40:57.263Z,97326.44
2018-12-26T15:43:25.509Z,97323.43
2018-12-26T15:45:53.775Z,97318.78
2018-12-26T15:48:22.016Z,97325.57
2018-12-26T15:50:50.284Z,97317.63
2018-12-26T15:53:18.526Z,97321.16
2018-12-26T15:55:46.813Z,97323.03
2018-12-26T15:58:15.055Z,97325.83
2018-12-26T16:00:43.324Z,97322.34
2018-12-26T16:03:11.801Z,97325.17
2018-12-26T16:05:40.043Z,97322.66
2018-12-26T16:08:08.310Z,97325.05
2018-12-26T16:10:36.558Z,97326.95
2018-12-26T16:13:04.859Z,97332.42
2018-12-26T16:15:33.103Z,97333.25
2018-12-26T16:18:01.372Z,97329.74
2018-12-26T16:20:29.623Z,97332.46
2018-12-26T16:22:57.885Z,97331.39
2018-12-26T16:25:26.131Z,97331.80
2018-12-26T16:27:55.184Z,97334.03
2018-12-26T16:30:24.085Z,97328.50
2018-12-26T16:34:57.656Z,97327.14
2018-12-26T16:37:25.924Z,97334.48
2018-12-26T16:39:54.171Z,97332.16
2018-12-26T16:42:21.803Z,97337.96
2018-12-26T16:44:49.427Z,97352.73
2018-12-26T16:47:17.076Z,97339.92
2018-12-26T16:49:44.830Z,97338.84
2018-12-26T16:52:12.477Z,97336.29
2018-12-26T16:54:40.097Z,97333.53
2018-12-26T16:57:07.743Z,97332.42
2018-12-26T16:59:35.367Z,97335.95
2018-12-26T17:02:03.021Z,97337.31
2018-12-26T17:04:30.641Z,97337.02
2018-12-26T17:06:58.288Z,97331.58
2018-12-26T17:09:25.907Z,97338.66
2018-12-26T17:11:53.555Z,97342.45
2018-12-26T17:14:21.180Z,97332.95
2018-12-26T17:16:48.819Z,97336.20
2018-12-26T17:19:16.447Z,97331.83
2018-12-26T17:21:44.152Z,97331.01
2018-12-26T17:24:16.483Z,97330.47
2018-12-26T17:26:41.072Z,97332.91
2018-12-26T17:29:08.700Z,97328.00
2018-12-26T17:31:36.346Z,97329.90
2018-12-26T17:34:03.965Z,97333.15
2018-12-26T17:36:31.620Z,97332.33
2018-12-26T17:38:59.259Z,97328.50
2018-12-26T17:41:26.901Z,97331.50
2018-12-26T17:43:54.528Z,97340.72
2018-12-26T17:46:22.155Z,97329.59
2018-12-26T17:48:49.800Z,97334.74
2018-12-26T17:51:17.428Z,97333.09
2018-12-26T17:53:46.695Z,97337.70
2018-12-26T17:56:21.700Z,97338.78
2018-12-26T17:58:56.739Z,97329.80
2018-12-26T18:01:25.999Z,97331.70
2018-12-26T18:03:53.643Z,97326.22
2018-12-26T18:06:21.269Z,97330.30
2018-12-26T18:08:48.924Z,97333.02
2018-12-26T18:11:16.544Z,97334.37
2018-12-26T18:13:44.200Z,97326.75
2018-12-26T18:16:11.828Z,97326.47
2018-12-26T18:18:39.474Z,97327.03
2018-12-26T18:21:07.550Z,97327.03
2018-12-26T18:23:35.344Z,97326.20
2018-12-26T18:26:02.972Z,97326.75
2018-12-26T18:28:30.622Z,97328.10
2018-12-26T18:30:58.249Z,97319.95
2018-12-26T18:33:25.896Z,97324.56
2018-12-26T18:35:53.525Z,97318.30
2018-12-26T18:38:21.176Z,97324.56
2018-12-26T18:40:48.868Z,97317.52
2018-12-26T18:43:16.520Z,97323.49
2018-12-26T18:45:44.143Z,97325.39
2018-12-26T18:48:11.797Z,97325.39
2018-12-26T18:50:39.443Z,97316.41
2018-12-26T18:53:07.091Z,97324.85
2018-12-26T18:55:34.715Z,97319.41
2018-12-26T18:58:02.409Z,97317.23
2018-12-26T19:00:30.105Z,97323.73
2018-12-26T19:02:57.735Z,97316.66
2018-12-26T19:05:25.384Z,97307.44
2018-12-26T19:07:53.013Z,97313.41
2018-12-26T19:10:20.659Z,97308.80
2018-12-26T19:12:48.639Z,97305.01
2018-12-26T19:15:16.287Z,97308.02
2018-12-26T19:17:44.812Z,97306.95
2018-12-26T19:20:12.455Z,97309.95
2018-12-26T19:22:40.557Z,97305.30
